Time;durP1;ratioP1;P1;durP2;ratioP2;P2;SDS_P1;SDS_P2;PMS_P1;PMS_P2;Temp;Humidity;BMP_temperature;BMP_pressure;BME280_temperature;BME280_humidity;BME280_pressure;Samples;Min_cycle;Max_cycle;Signal;HPM_P1;HPM_P2
2022/07/30 00:00:26;;;;;;;46.70;14.50;;;;;;;20.60;80.40;100010.72;10459425;28;20060;-66
2022/07/30 00:05:27;;;;;;;62.38;15.18;;;;;;;20.46;81.14;100006.63;10458664;28;20090;-66
2022/07/30 00:10:28;;;;;;;36.53;14.05;;;;;;;20.26;81.62;99985.50;10458441;28;20085;-66
2022/07/30 00:15:29;;;;;;;27.90;13.43;;;;;;;20.29;81.43;99988.53;10460013;28;20056;-65
2022/07/30 00:20:29;;;;;;;58.92;14.52;;;;;;;19.62;81.76;99907.34;10458699;28;20037;-65
2022/07/30 00:25:31;;;;;;;25.23;13.57;;;;;;;19.98;81.95;99978.19;10458052;28;20060;-66
2022/07/30 00:30:31;;;;;;;34.75;14.45;;;;;;;20.04;82.98;99988.00;10457962;28;20033;-66
2022/07/30 00:35:32;;;;;;;24.33;14.25;;;;;;;19.91;83.08;99962.16;10473156;28;20421;-65
2022/07/30 00:40:33;;;;;;;34.00;14.65;;;;;;;20.16;83.45;100005.00;10457968;28;20036;-66
2022/07/30 00:45:35;;;;;;;18.67;12.38;;;;;;;20.10;83.92;99994.34;10457513;28;20507;-66
2022/07/30 00:50:37;;;;;;;29.95;14.20;;;;;;;19.84;84.21;99962.28;10456927;28;20447;-66
2022/07/30 00:55:38;;;;;;;23.55;13.25;;;;;;;19.91;84.31;99980.22;10458302;28;20482;-66
2022/07/30 01:00:39;;;;;;;21.67;13.43;;;;;;;19.37;84.63;99905.75;10457031;28;20044;-66
2022/07/30 01:05:40;;;;;;;23.13;12.93;;;;;;;19.97;84.73;99990.03;10457616;28;20590;-66
2022/07/30 01:10:40;;;;;;;65.03;17.00;;;;;;;19.96;84.49;99983.84;10456670;28;20060;-66
2022/07/30 01:15:42;;;;;;;34.65;13.55;;;;;;;19.31;84.54;99903.19;10456244;28;20041;-67
2022/07/30 01:20:55;;;;;;;51.10;14.65;;;;;;;19.79;87.33;100001.78;10455098;28;20045;-66
2022/07/30 01:26:04;;;;;;;60.92;15.82;;;;;;;19.82;87.23;100002.13;10455093;28;20052;-66
2022/07/30 01:31:06;;;;;;;44.72;14.23;;;;;;;19.75;85.72;99993.38;10455530;28;20068;-66
2022/07/30 01:36:10;;;;;;;33.10;13.98;;;;;;;19.52;87.46;99979.88;10455275;28;20049;-66
2022/07/30 01:41:14;;;;;;;31.33;12.43;;;;;;;19.47;87.21;99983.28;10455617;28;20048;-66
2022/07/30 01:58:11;;;;;;;43.55;12.75;;;;;;;19.55;87.72;99999.09;10454607;28;20059;-66
2022/07/30 02:03:12;;;;;;;45.28;13.32;;;;;;;19.38;87.81;99973.91;10454318;28;20041;-66
2022/07/30 02:08:35;;;;;;;34.95;10.82;;;;;;;19.52;89.75;99974.50;10455695;28;20401;-66
2022/07/30 02:13:51;;;;;;;47.40;12.98;;;;;;;19.58;90.42;99995.91;10454681;28;20068;-67
2022/07/30 02:19:05;;;;;;;67.40;15.00;;;;;;;19.03;90.45;99893.97;10454091;28;20417;-66
2022/07/30 02:24:18;;;;;;;39.28;11.18;;;;;;;19.26;88.81;99919.22;10454807;28;20052;-67
2022/07/30 02:29:21;;;;;;;43.58;12.50;;;;;;;18.90;87.23;99846.56;10454530;28;20041;-66
2022/07/30 02:34:24;;;;;;;44.88;13.55;;;;;;;19.61;86.65;99924.59;10454542;28;20480;-66
2022/07/30 02:39:26;;;;;;;22.55;10.68;;;;;;;19.75;86.24;99911.69;10454766;28;20049;-66
2022/07/30 02:44:28;;;;;;;25.38;10.82;;;;;;;20.60;85.50;99999.09;10451217;28;20048;-66
2022/07/30 02:49:32;;;;;;;40.03;12.13;;;;;;;20.29;85.08;99912.19;10454519;28;20052;-66
2022/07/30 02:54:36;;;;;;;84.97;13.93;;;;;;;20.98;85.25;99977.63;10453876;28;20186;-66
2022/07/30 02:59:38;;;;;;;;;;;;;;;21.91;83.10;100012.22;10454910;28;20135;-66
2022/07/30 03:04:40;;;;;;;18.50;9.97;;;;;;;22.45;80.89;100003.44;10452944;28;19916;-66
2022/07/30 03:09:43;;;;;;;27.65;10.77;;;;;;;23.26;78.11;100006.06;10470387;28;20091;-66
2022/07/30 03:14:44;;;;;;;23.35;10.45;;;;;;;23.95;74.98;99940.03;10460955;28;20060;-67
2022/07/30 03:19:48;;;;;;;14.07;9.63;;;;;;;25.55;68.34;99996.13;10461022;28;20045;-66
2022/07/30 03:24:50;;;;;;;17.17;8.82;;;;;;;26.79;65.48;99995.31;10460922;28;20036;-66
2022/07/30 03:29:54;;;;;;;13.73;8.25;;;;;;;28.18;58.56;99995.53;10460039;28;20484;-66
2022/07/30 03:34:56;;;;;;;15.75;8.88;;;;;;;29.60;56.45;100001.78;10459311;28;20075;-67
2022/07/30 03:39:58;;;;;;;14.50;7.78;;;;;;;29.89;54.08;99931.13;10459836;28;20044;-67
2022/07/30 03:45:04;;;;;;;15.63;8.53;;;;;;;30.97;50.04;99967.84;10459890;28;20136;-67
2022/07/30 03:50:05;;;;;;;12.55;8.00;;;;;;;31.58;49.22;99981.88;10459400;28;20558;-66
2022/07/30 03:55:09;;;;;;;11.73;8.15;;;;;;;32.13;47.37;99986.94;10458661;28;20569;-66
2022/07/30 04:00:15;;;;;;;13.40;8.82;;;;;;;32.55;45.88;100001.06;10459700;28;20090;-67
2022/07/30 04:05:16;;;;;;;15.32;8.52;;;;;;;32.79;45.87;99985.97;10459472;28;20045;-67
2022/07/30 04:10:16;;;;;;;14.85;8.32;;;;;;;33.21;44.29;99997.25;10459040;28;20504;-67
2022/07/30 04:15:17;;;;;;;18.17;8.43;;;;;;;33.33;43.61;100000.16;10459439;28;20053;-67
2022/07/30 04:20:23;;;;;;;12.07;8.13;;;;;;;33.51;42.36;100000.91;10457738;28;20073;-67
2022/07/30 04:25:25;;;;;;;17.65;7.70;;;;;;;33.63;41.85;100003.78;10458585;28;20076;-67
2022/07/30 04:30:26;;;;;;;30.95;8.25;;;;;;;33.61;42.56;99981.25;10458053;28;20051;-67
2022/07/30 04:35:29;;;;;;;10.10;6.72;;;;;;;33.58;42.54;100001.19;10474762;28;20048;-67
2022/07/30 04:40:30;;;;;;;17.55;6.05;;;;;;;32.53;44.56;99936.50;10458043;28;20586;-70
2022/07/30 04:45:31;;;;;;;7.38;5.60;;;;;;;32.48;44.55;99975.97;10452899;28;20047;-71
2022/07/30 04:50:34;;;;;;;13.73;6.30;;;;;;;32.42;44.67;99997.28;10454734;28;20041;-71
2022/07/30 04:55:41;;;;;;;12.68;5.15;;;;;;;32.43;44.41;99987.91;10448110;28;20082;-71
2022/07/30 05:00:43;;;;;;;15.77;5.40;;;;;;;32.61;44.18;99997.00;10415167;28;20077;-71
2022/07/30 05:05:46;;;;;;;12.70;5.67;;;;;;;32.46;43.68;100000.25;10456014;28;20618;-71
2022/07/30 05:10:46;;;;;;;13.00;4.68;;;;;;;31.98;44.29;99970.88;10442197;28;20064;-71
2022/07/30 05:15:47;;;;;;;7.20;4.40;;;;;;;31.71;45.07;99982.88;10431594;28;20088;-69
2022/07/30 05:20:48;;;;;;;10.80;4.43;;;;;;;31.52;46.33;99963.94;10455436;28;20040;-70
2022/07/30 05:25:49;;;;;;;10.82;4.10;;;;;;;31.18;45.40;99895.97;10455535;28;20037;-70
2022/07/30 05:30:50;;;;;;;12.20;4.63;;;;;;;31.86;45.28;99982.47;10454643;28;20041;-70
2022/07/30 05:35:51;;;;;;;12.88;3.97;;;;;;;31.42;45.09;99939.53;10454033;28;20568;-71
2022/07/30 05:40:52;;;;;;;6.70;4.28;;;;;;;31.23;44.54;99913.13;10453757;28;20056;-70
2022/07/30 05:45:53;;;;;;;9.25;3.55;;;;;;;31.52;44.08;99911.78;10450671;28;20381;-71
2022/07/30 05:50:53;;;;;;;14.77;3.75;;;;;;;31.79;44.30;99932.69;10450783;28;20536;-71
2022/07/30 05:55:55;;;;;;;6.53;3.65;;;;;;;32.35;43.62;99971.41;10449365;28;20063;-72
2022/07/30 06:00:55;;;;;;;12.05;4.80;;;;;;;32.46;43.63;99937.00;10449623;28;20037;-72
2022/07/30 06:05:56;;;;;;;12.23;4.32;;;;;;;32.94;43.09;99966.22;10447676;28;20040;-70
2022/07/30 06:10:57;;;;;;;7.18;3.70;;;;;;;33.00;41.71;99961.34;10446224;28;20062;-72
2022/07/30 06:15:58;;;;;;;12.07;3.75;;;;;;;32.79;42.82;99903.44;10450078;28;20057;-72
2022/07/30 06:20:59;;;;;;;7.57;3.55;;;;;;;33.37;41.51;99962.56;10446968;28;20488;-72
2022/07/30 06:26:00;;;;;;;5.00;3.13;;;;;;;33.58;39.98;99955.19;10450435;28;20041;-72
2022/07/30 06:31:01;;;;;;;5.40;3.33;;;;;;;33.78;39.10;99944.56;10449481;28;20440;-70
2022/07/30 06:36:02;;;;;;;9.68;3.28;;;;;;;33.57;38.14;99886.69;10446907;28;20041;-73
2022/07/30 06:41:03;;;;;;;8.32;3.50;;;;;;;33.91;38.13;99918.69;10449706;28;20064;-71
2022/07/30 06:46:03;;;;;;;24.30;3.78;;;;;;;34.31;38.88;99940.28;10454536;28;20029;-72
2022/07/30 06:51:04;;;;;;;4.35;2.40;;;;;;;34.28;34.78;99917.00;10456953;28;20041;-70
2022/07/30 06:56:05;;;;;;;4.28;2.70;;;;;;;34.61;34.30;99918.16;10452347;28;20067;-72
2022/07/30 07:01:06;;;;;;;13.13;2.80;;;;;;;34.81;34.00;99920.06;10456382;28;20045;-71
2022/07/30 07:06:07;;;;;;;11.20;3.38;;;;;;;34.64;33.40;99865.06;10457751;28;20040;-75
2022/07/30 07:11:08;;;;;;;4.97;2.40;;;;;;;34.53;32.18;99854.44;10455161;28;20778;-71
2022/07/30 07:16:09;;;;;;;9.07;2.70;;;;;;;35.15;32.26;99907.03;10455827;28;20064;-71
2022/07/30 07:21:10;;;;;;;12.98;2.72;;;;;;;35.39;31.92;99911.75;10460466;28;20389;-71
2022/07/30 07:26:11;;;;;;;8.10;3.45;;;;;;;34.52;31.25;99739.78;10461133;28;20041;-72
2022/07/30 07:31:12;;;;;;;5.00;2.47;;;;;;;35.81;31.29;99900.47;10459978;28;20503;-72
2022/07/30 07:36:13;;;;;;;9.25;3.25;;;;;;;35.63;30.79;99873.13;10460442;28;20064;-69
2022/07/30 07:41:14;;;;;;;7.03;3.13;;;;;;;35.86;30.22;99898.25;10459819;28;20511;-70
2022/07/30 07:46:17;;;;;;;6.75;2.50;;;;;;;35.82;29.75;99868.94;10459825;28;20041;-72
2022/07/30 07:51:19;;;;;;;4.55;2.30;;;;;;;35.62;29.14;99837.53;10458484;28;20510;-71
2022/07/30 07:56:21;;;;;;;9.20;3.00;;;;;;;35.52;28.60;99824.97;10455986;28;20037;-72
2022/07/30 08:01:21;;;;;;;13.10;2.70;;;;;;;36.12;28.93;99877.72;10456470;28;20123;-72
2022/07/30 08:06:22;;;;;;;5.22;2.63;;;;;;;36.14;30.28;99842.25;10422791;28;20587;-71
2022/07/30 08:11:23;;;;;;;11.55;2.72;;;;;;;36.35;30.19;99883.53;10457409;28;20037;-72
2022/07/30 08:16:24;;;;;;;10.50;2.70;;;;;;;36.50;29.70;99873.66;10436086;28;20144;-71
2022/07/30 08:21:25;;;;;;;4.78;2.20;;;;;;;36.24;29.00;99830.66;10418236;28;20546;-72
2022/07/30 08:26:25;;;;;;;4.10;1.85;;;;;;;36.54;28.55;99864.31;10416952;28;20448;-73
2022/07/30 08:31:26;;;;;;;7.20;2.50;;;;;;;36.65;27.34;99844.44;10417250;28;20044;-72
2022/07/30 08:36:27;;;;;;;10.13;2.72;;;;;;;36.73;28.76;99863.59;10417882;28;20033;-75
2022/07/30 08:41:28;;;;;;;5.15;2.55;;;;;;;36.31;28.12;99836.38;10416213;28;20072;-71
2022/07/30 08:46:31;;;;;;;8.70;2.93;;;;;;;36.15;28.36;99776.69;10431924;28;20219;-72
2022/07/30 08:51:32;;;;;;;8.80;3.13;;;;;;;36.61;28.46;99833.25;10450382;28;20037;-71
2022/07/30 08:56:33;;;;;;;8.55;2.63;;;;;;;36.49;28.62;99825.00;10428435;28;20417;-72
2022/07/30 09:01:34;;;;;;;12.70;2.57;;;;;;;36.87;28.38;99845.78;10438871;28;20414;-71
2022/07/30 09:06:36;;;;;;;9.63;2.75;;;;;;;36.89;28.11;99813.00;10456349;28;20048;-71
2022/07/30 09:11:37;;;;;;;10.35;2.63;;;;;;;36.73;27.90;99797.19;10427886;28;20042;-72
2022/07/30 09:16:38;;;;;;;8.73;2.40;;;;;;;36.37;27.80;99736.56;10427193;28;20052;-70
2022/07/30 09:21:39;;;;;;;8.97;2.37;;;;;;;36.92;27.49;99815.84;10455545;28;20487;-73
2022/07/30 09:26:59;;;;;;;4.10;2.30;;;;;;;36.79;27.89;99761.75;10456228;28;20059;-72
2022/07/30 09:32:09;;;;;;;3.47;2.28;;;;;;;37.08;26.28;99818.63;10455548;28;20041;-74
2022/07/30 09:37:10;;;;;;;4.25;2.17;;;;;;;37.25;27.09;99806.38;10456447;28;20455;-71
2022/07/30 09:42:23;;;;;;;8.70;3.00;;;;;;;36.80;27.16;99730.16;10455195;28;20048;-72
2022/07/30 09:47:36;;;;;;;6.75;2.35;;;;;;;37.10;26.22;99772.00;10455483;28;20102;-70
2022/07/30 09:52:39;;;;;;;8.20;3.53;;;;;;;37.32;27.97;99797.41;10454591;28;20037;-71
2022/07/30 09:57:57;;;;;;;7.68;2.65;;;;;;;37.22;26.43;99758.03;10455633;28;20040;-71
2022/07/30 10:03:02;;;;;;;10.43;2.90;;;;;;;37.24;26.26;99779.81;10454656;28;20381;-71
2022/07/30 10:08:05;;;;;;;8.85;2.40;;;;;;;36.52;26.71;99650.81;10455301;28;20052;-74
2022/07/30 10:13:07;;;;;;;8.48;3.10;;;;;;;37.25;25.29;99784.22;10454359;28;20061;-71
2022/07/30 10:18:09;;;;;;;5.97;2.63;;;;;;;36.06;26.56;99697.47;10454221;28;20041;-72
2022/07/30 10:23:11;;;;;;;6.20;2.35;;;;;;;36.63;26.28;99764.53;10454627;28;20519;-71
2022/07/30 10:28:13;;;;;;;8.15;2.50;;;;;;;36.82;26.52;99774.06;10470139;28;20037;-71
2022/07/30 10:33:14;;;;;;;8.30;2.40;;;;;;;36.11;26.95;99630.88;10453636;28;20447;-73
2022/07/30 10:38:17;;;;;;;15.48;3.00;;;;;;;37.18;26.50;99764.66;10454344;28;20136;-72
2022/07/30 10:43:44;;;;;;;9.52;2.67;;;;;;;37.31;26.94;99771.69;10447576;28;20045;-72
2022/07/30 10:48:45;;;;;;;8.95;2.92;;;;;;;37.27;26.22;99770.00;10453496;28;20059;-72
2022/07/30 10:53:47;;;;;;;8.87;2.93;;;;;;;36.77;26.57;99684.63;10454039;28;20072;-72
2022/07/30 10:59:07;;;;;;;6.03;2.33;;;;;;;37.12;25.94;99768.88;10453853;28;20044;-71
2022/07/30 11:04:27;;;;;;;4.35;2.60;;;;;;;36.39;26.40;99765.47;10453759;28;20044;-71
2022/07/30 11:09:40;;;;;;;8.53;3.20;;;;;;;36.48;27.08;99759.78;10453652;28;20508;-73
2022/07/30 11:14:47;;;;;;;8.88;2.97;;;;;;;36.75;26.21;99761.66;10453745;28;20135;-72
2022/07/30 11:20:08;;;;;;;10.88;3.00;;;;;;;37.08;26.86;99765.22;10453543;28;20373;-73
2022/07/30 11:25:29;;;;;;;6.30;2.47;;;;;;;37.25;26.35;99767.59;10453249;28;20520;-73
2022/07/30 11:30:33;;;;;;;5.97;2.40;;;;;;;36.96;26.04;99694.13;10443523;28;20075;-73
2022/07/30 11:35:34;;;;;;;8.35;2.60;;;;;;;37.29;25.36;99751.84;10435019;28;20279;-73
2022/07/30 11:40:59;;;;;;;10.43;2.22;;;;;;;37.19;24.79;99733.84;10456791;28;20429;-73
2022/07/30 11:46:18;;;;;;;7.72;2.38;;;;;;;37.43;25.31;99740.28;10457821;28;20134;-73
2022/07/30 11:51:20;;;;;;;11.95;2.20;;;;;;;37.43;24.65;99724.44;10453659;28;20044;-71
2022/07/30 11:56:20;;;;;;;6.05;2.38;;;;;;;37.13;25.26;99699.28;10458707;28;20087;-72
2022/07/30 12:01:21;;;;;;;4.20;2.00;;;;;;;37.26;25.01;99724.06;10457814;28;20041;-73
2022/07/30 12:06:22;;;;;;;6.28;2.30;;;;;;;37.10;25.21;99722.16;10457788;28;20131;-75
2022/07/30 12:11:24;;;;;;;7.87;2.67;;;;;;;36.95;26.11;99722.97;10453591;28;20408;-74
2022/07/30 12:16:26;;;;;;;5.07;2.38;;;;;;;36.91;25.81;99699.94;10458646;28;20677;-73
2022/07/30 12:21:27;;;;;;;7.40;2.45;;;;;;;36.85;25.62;99706.91;10451905;28;20049;-74
2022/07/30 12:26:31;;;;;;;10.63;2.50;;;;;;;36.89;25.65;99694.78;10456364;28;20488;-71
2022/07/30 12:31:33;;;;;;;4.07;2.50;;;;;;;36.72;25.28;99659.97;10456324;28;20064;-72
2022/07/30 12:36:34;;;;;;;6.50;2.17;;;;;;;36.92;25.15;99696.81;10457000;28;20127;-72
2022/07/30 12:41:44;;;;;;;9.82;2.15;;;;;;;37.03;25.56;99699.03;10456588;28;20045;-71
2022/07/30 12:46:45;;;;;;;3.88;2.55;;;;;;;37.07;25.20;99684.13;10451432;28;20124;-72
2022/07/30 12:51:52;;;;;;;8.90;2.15;;;;;;;36.52;24.47;99614.06;10457128;28;20562;-72
2022/07/30 12:56:58;;;;;;;10.43;2.30;;;;;;;36.81;24.65;99689.44;10453338;28;20063;-72
2022/07/30 13:01:59;;;;;;;4.25;2.35;;;;;;;36.69;24.81;99657.16;10451232;28;20090;-73
2022/07/30 13:07:05;;;;;;;8.90;2.60;;;;;;;36.87;24.92;99674.16;10451876;28;20044;-73
2022/07/30 13:12:11;;;;;;;7.22;2.00;;;;;;;36.88;23.87;99668.25;10451390;28;20520;-73
2022/07/30 13:17:12;;;;;;;5.47;2.00;;;;;;;36.08;24.63;99547.84;10449648;28;20048;-72
2022/07/30 13:22:12;;;;;;;6.88;2.17;;;;;;;36.79;24.68;99665.66;10452217;28;20049;-72
2022/07/30 13:27:15;;;;;;;5.65;1.98;;;;;;;36.55;24.78;99633.50;10446080;28;20033;-72
2022/07/30 13:32:16;;;;;;;5.00;1.83;;;;;;;36.66;24.48;99652.34;10449122;28;20090;-74
2022/07/30 13:37:17;;;;;;;3.15;1.73;;;;;;;36.52;24.27;99653.59;10448654;28;20450;-75
2022/07/30 13:42:17;;;;;;;3.63;2.03;;;;;;;36.39;24.60;99637.44;10449277;28;20121;-75
2022/07/30 13:47:18;;;;;;;5.35;1.98;;;;;;;36.24;24.57;99619.72;10448274;28;20049;-72
2022/07/30 13:52:19;;;;;;;4.35;1.70;;;;;;;36.32;24.14;99638.88;10444767;28;20127;-73
2022/07/30 13:57:20;;;;;;;5.82;1.90;;;;;;;36.18;24.01;99621.13;10449896;28;20492;-73
2022/07/30 14:02:21;;;;;;;5.45;1.80;;;;;;;36.23;24.18;99637.44;10450300;28;20500;-73
2022/07/30 14:07:22;;;;;;;4.65;2.00;;;;;;;36.15;24.15;99635.69;10450140;28;20033;-74
2022/07/30 14:12:23;;;;;;;2.92;1.70;;;;;;;36.09;23.88;99630.41;10450558;28;20135;-73
2022/07/30 14:17:24;;;;;;;5.47;1.65;;;;;;;36.05;23.78;99637.03;10450150;28;20136;-74
2022/07/30 14:22:26;;;;;;;10.75;1.77;;;;;;;36.01;23.63;99630.56;10452634;28;20055;-73
2022/07/30 14:27:27;;;;;;;12.35;2.78;;;;;;;35.13;24.38;99501.59;10454382;28;20444;-71
2022/07/30 14:32:28;;;;;;;4.25;2.00;;;;;;;35.89;24.09;99620.38;10442731;28;20071;-72
2022/07/30 14:37:29;;;;;;;7.00;3.10;;;;;;;35.71;23.53;99592.28;10455375;28;20132;-71
2022/07/30 14:42:30;;;;;;;8.60;3.20;;;;;;;35.56;24.19;99620.72;10431190;28;20496;-72
2022/07/30 14:47:31;;;;;;;14.57;6.63;;;;;;;35.42;24.09;99624.66;10412704;28;20045;-73
2022/07/30 14:52:37;;;;;;;17.63;7.35;;;;;;;34.85;24.83;99554.03;10412898;28;20048;-72
2022/07/30 14:57:38;;;;;;;10.77;7.30;;;;;;;35.20;24.66;99625.22;10412399;28;20069;-71
2022/07/30 15:02:39;;;;;;;38.20;8.00;;;;;;;35.07;24.51;99626.41;10412452;28;20515;-72
2022/07/30 15:07:40;;;;;;;12.43;7.27;;;;;;;34.79;24.46;99607.81;10419061;28;20041;-71
2022/07/30 15:12:41;;;;;;;14.52;6.70;;;;;;;34.82;24.41;99620.91;10420134;28;20148;-71
2022/07/30 15:17:42;;;;;;;10.23;7.60;;;;;;;34.58;24.77;99615.44;10420374;28;20048;-71
2022/07/30 15:22:43;;;;;;;11.07;7.82;;;;;;;34.65;24.88;99635.78;10420578;28;20073;-73
2022/07/30 15:27:43;;;;;;;23.55;17.45;;;;;;;34.06;24.89;99561.81;10420876;28;20484;-72
2022/07/30 15:32:44;;;;;;;16.33;11.82;;;;;;;34.37;25.23;99649.44;10418974;28;20116;-72
2022/07/30 15:37:46;;;;;;;26.30;15.90;;;;;;;34.07;25.44;99622.09;10419518;28;20055;-72
2022/07/30 15:42:46;;;;;;;42.28;31.73;;;;;;;34.05;25.76;99651.94;10419683;28;20052;-72
2022/07/30 15:47:47;;;;;;;17.45;11.45;;;;;;;33.70;25.69;99634.97;10419000;28;20041;-72
2022/07/30 15:52:48;;;;;;;20.80;12.60;;;;;;;33.61;26.29;99659.03;10419044;28;20042;-72
2022/07/30 15:57:49;;;;;;;25.20;10.38;;;;;;;33.41;26.06;99660.63;10418740;28;20033;-72
2022/07/30 16:02:50;;;;;;;17.58;10.18;;;;;;;32.79;26.80;99589.88;10418420;28;20049;-71
2022/07/30 16:07:51;;;;;;;16.75;10.60;;;;;;;32.98;26.76;99653.53;10417758;28;20038;-72
2022/07/30 16:12:51;;;;;;;12.43;9.95;;;;;;;32.48;26.75;99596.56;10418631;28;20049;-73
2022/07/30 16:17:52;;;;;;;15.13;10.82;;;;;;;32.27;26.93;99591.00;10417670;28;20504;-71
2022/07/30 16:22:53;;;;;;;28.17;11.43;;;;;;;32.45;27.10;99655.78;10417424;28;20053;-71
2022/07/30 16:27:54;;;;;;;23.33;11.55;;;;;;;32.39;27.85;99681.00;10416929;28;20042;-71
2022/07/30 16:32:55;;;;;;;17.00;11.43;;;;;;;32.24;27.94;99679.59;10417343;28;20497;-71
2022/07/30 16:38:01;;;;;;;23.38;11.60;;;;;;;32.08;28.42;99682.09;10417710;28;20041;-71
2022/07/30 16:43:02;;;;;;;13.30;11.00;;;;;;;31.91;28.64;99676.63;10417047;28;20045;-71
2022/07/30 16:48:03;;;;;;;17.92;11.70;;;;;;;31.76;29.30;99699.91;10417484;28;20037;-71
2022/07/30 16:53:05;;;;;;;89.18;59.75;;;;;;;31.60;29.57;99689.41;10440483;28;20131;-69
2022/07/30 16:58:06;;;;;;;22.83;17.80;;;;;;;31.19;29.85;99650.66;10483784;28;20523;-70
2022/07/30 17:03:06;;;;;;;89.32;63.72;;;;;;;30.90;30.04;99632.88;10497055;28;20526;-71
2022/07/30 17:08:07;;;;;;;23.08;15.60;;;;;;;30.69;30.60;99629.91;10497670;28;20041;-70
2022/07/30 17:13:08;;;;;;;16.67;11.75;;;;;;;30.86;31.36;99682.06;10497409;28;20106;-71
2022/07/30 17:18:09;;;;;;;11.50;10.13;;;;;;;30.72;31.88;99681.34;10498135;28;20135;-71
2022/07/30 17:23:10;;;;;;;60.35;48.33;;;;;;;30.52;32.87;99662.78;10497039;28;20048;-74
2022/07/30 17:28:11;;;;;;;16.95;12.50;;;;;;;30.57;33.66;99687.28;10496559;28;20377;-72
2022/07/30 17:33:12;;;;;;;12.55;9.55;;;;;;;30.55;34.32;99697.78;10497810;28;20037;-72
2022/07/30 17:38:13;;;;;;;37.03;21.83;;;;;;;30.02;35.31;99626.28;10497853;28;20086;-71
2022/07/30 17:43:14;;;;;;;14.95;10.68;;;;;;;30.24;35.95;99693.94;10496585;28;20040;-71
2022/07/30 17:48:16;;;;;;;15.32;9.73;;;;;;;30.32;36.72;99717.00;10496522;28;20075;-72
2022/07/30 17:53:17;;;;;;;23.20;8.63;;;;;;;30.17;37.00;99700.94;10497327;28;20051;-71
2022/07/30 17:58:21;;;;;;;16.80;8.85;;;;;;;30.16;37.66;99732.22;10495520;28;20442;-72
2022/07/30 18:03:22;;;;;;;12.40;8.82;;;;;;;30.01;37.64;99725.19;10468221;28;20048;-72
2022/07/30 18:08:24;;;;;;;11.80;7.97;;;;;;;29.83;38.13;99721.53;10454856;28;20045;-73
2022/07/30 18:13:25;;;;;;;14.88;8.43;;;;;;;29.77;39.00;99723.59;10454424;28;20065;-72
2022/07/30 18:18:26;;;;;;;11.07;7.90;;;;;;;29.72;39.40;99737.38;10454654;28;20044;-72
2022/07/30 18:23:27;;;;;;;12.38;7.03;;;;;;;29.66;39.26;99735.91;10453906;28;20511;-71
2022/07/30 18:28:28;;;;;;;15.07;6.78;;;;;;;29.25;39.61;99681.28;10455478;28;20071;-72
2022/07/30 18:33:29;;;;;;;12.02;6.63;;;;;;;28.97;40.20;99669.56;10453487;28;20036;-72
2022/07/30 18:38:29;;;;;;;13.80;6.78;;;;;;;29.37;40.19;99751.88;10454065;28;20041;-71
2022/07/30 18:43:31;;;;;;;8.55;6.03;;;;;;;29.22;40.78;99753.00;10462744;28;20040;-66
2022/07/30 18:48:32;;;;;;;12.85;6.53;;;;;;;29.08;40.97;99745.66;10462655;28;20045;-71
2022/07/30 18:53:33;;;;;;;10.93;6.20;;;;;;;28.96;41.30;99734.38;10461431;28;20040;-71
2022/07/30 18:58:36;;;;;;;10.30;6.13;;;;;;;28.85;41.58;99736.50;10461543;28;20048;-72
2022/07/30 19:03:36;;;;;;;12.05;6.28;;;;;;;28.55;42.03;99704.31;10461852;28;20408;-72
2022/07/30 19:08:37;;;;;;;11.95;5.97;;;;;;;28.57;42.47;99732.13;10461807;28;20052;-71
2022/07/30 19:13:38;;;;;;;11.98;6.55;;;;;;;28.00;42.94;99661.34;10461058;28;20057;-72
2022/07/30 19:18:39;;;;;;;14.85;6.35;;;;;;;28.28;43.14;99711.34;10461889;28;20044;-71
2022/07/30 19:23:40;;;;;;;15.80;6.40;;;;;;;27.95;43.56;99686.00;10460526;28;20055;-72
2022/07/30 19:28:41;;;;;;;10.55;6.20;;;;;;;28.13;44.23;99739.75;10461610;28;20091;-71
2022/07/30 19:33:42;;;;;;;10.50;5.95;;;;;;;27.84;44.24;99709.91;10460387;28;20561;-72
2022/07/30 19:38:44;;;;;;;12.00;6.18;;;;;;;27.73;44.84;99717.44;10460231;28;20041;-72
2022/07/30 19:43:44;;;;;;;10.95;6.13;;;;;;;27.63;44.87;99723.03;10460227;28;20040;-71
2022/07/30 19:48:46;;;;;;;10.68;6.60;;;;;;;27.14;45.53;99667.03;10460247;28;20037;-71
2022/07/30 19:53:47;;;;;;;10.35;6.97;;;;;;;27.33;45.51;99718.06;10458004;28;20128;-71
2022/07/30 19:58:48;;;;;;;12.85;6.50;;;;;;;26.80;46.49;99659.84;10479110;28;20139;-71
2022/07/30 20:03:49;;;;;;;15.40;6.93;;;;;;;27.17;46.46;99725.63;10501356;28;20135;-71
2022/07/30 20:08:50;;;;;;;11.20;6.10;;;;;;;27.07;46.40;99737.44;10500310;28;20082;-71
2022/07/30 20:13:51;;;;;;;12.75;6.70;;;;;;;26.34;46.79;99649.47;10500233;28;20057;-71
2022/07/30 20:18:52;;;;;;;9.18;6.45;;;;;;;26.52;46.68;99698.88;10499801;28;20034;-71
2022/07/30 20:23:53;;;;;;;12.20;6.60;;;;;;;26.69;46.47;99731.09;10499905;28;20041;-71
2022/07/30 20:28:54;;;;;;;13.70;6.82;;;;;;;26.63;46.72;99744.78;10499462;28;20522;-67
2022/07/30 20:33:55;;;;;;;14.77;7.47;;;;;;;25.99;47.31;99652.56;10514866;28;20052;-68
2022/07/30 20:38:56;;;;;;;12.13;7.10;;;;;;;26.32;47.37;99736.06;10499661;28;20036;-67
2022/07/30 20:43:56;;;;;;;9.85;6.82;;;;;;;26.19;47.65;99734.03;10500170;28;20037;-69
2022/07/30 20:48:57;;;;;;;11.65;6.95;;;;;;;25.72;47.94;99679.13;10499437;28;20404;-70
2022/07/30 20:53:58;;;;;;;14.85;9.57;;;;;;;25.79;48.00;99697.06;10498800;28;20040;-70
2022/07/30 20:58:59;;;;;;;18.13;8.23;;;;;;;26.01;48.20;99738.25;10490987;28;20078;-67
2022/07/30 21:04:00;;;;;;;8.98;7.43;;;;;;;25.22;48.45;99639.56;10498455;28;20067;-69
2022/07/30 21:09:01;;;;;;;9.73;7.32;;;;;;;25.62;48.74;99751.84;10498927;28;20068;-68
2022/07/30 21:14:02;;;;;;;9.45;7.70;;;;;;;25.27;49.09;99721.06;10498006;28;20508;-68
2022/07/30 21:19:09;;;;;;;11.98;7.60;;;;;;;25.15;49.85;99724.13;10497241;28;20416;-68
2022/07/30 21:24:14;;;;;;;17.00;8.27;;;;;;;24.96;50.05;99714.94;10497316;28;20044;-69
2022/07/30 21:29:16;;;;;;;14.90;8.52;;;;;;;24.86;50.26;99718.53;10497454;28;20565;-69
2022/07/30 21:34:16;;;;;;;13.95;8.70;;;;;;;24.91;50.62;99718.47;10496392;28;20040;-69
2022/07/30 21:39:17;;;;;;;10.70;8.15;;;;;;;24.62;50.42;99684.91;10496704;28;20040;-69
2022/07/30 21:44:18;;;;;;;13.95;8.70;;;;;;;24.88;50.47;99701.94;10497234;28;20041;-69
2022/07/30 21:49:19;;;;;;;21.35;10.38;;;;;;;24.82;50.67;99701.94;10496472;28;20119;-68
2022/07/30 21:54:20;;;;;;;16.33;9.85;;;;;;;24.91;50.59;99704.09;10496098;28;20044;-69
2022/07/30 21:59:21;;;;;;;12.43;9.98;;;;;;;24.87;50.91;99698.41;10496696;28;20043;-69
2022/07/30 22:04:22;;;;;;;12.57;9.13;;;;;;;24.77;50.94;99677.53;10496102;28;20040;-69
2022/07/30 22:09:23;;;;;;;16.73;10.02;;;;;;;24.80;51.24;99704.16;10495018;28;20416;-69
2022/07/30 22:14:23;;;;;;;11.75;9.98;;;;;;;24.29;51.59;99638.28;10496393;28;20052;-69
2022/07/30 22:19:25;;;;;;;25.20;10.38;;;;;;;24.67;51.88;99709.34;10496704;28;20045;-69
2022/07/30 22:24:25;;;;;;;15.23;10.27;;;;;;;24.44;52.06;99695.31;10495500;28;20487;-69
2022/07/30 22:29:27;;;;;;;20.98;12.57;;;;;;;24.40;52.84;99712.38;10495270;28;20064;-69
2022/07/30 22:34:27;;;;;;;14.13;11.50;;;;;;;24.29;53.36;99708.84;10496005;28;20041;-70
2022/07/30 22:39:28;;;;;;;15.05;9.70;;;;;;;24.17;53.52;99701.03;10495969;28;20074;-69
2022/07/30 22:44:29;;;;;;;17.33;9.82;;;;;;;23.90;54.25;99674.16;10495014;28;20123;-69
2022/07/30 22:49:30;;;;;;;14.55;10.07;;;;;;;23.88;54.86;99687.22;10496286;28;20092;-69
2022/07/30 22:54:30;;;;;;;19.02;10.50;;;;;;;23.95;54.80;99711.34;10495665;28;20504;-69
2022/07/30 22:59:31;;;;;;;12.32;10.35;;;;;;;23.65;55.63;99694.75;10495584;28;20044;-69
2022/07/30 23:04:32;;;;;;;18.45;10.35;;;;;;;23.11;55.65;99622.06;10495189;28;20097;-68
2022/07/30 23:09:33;;;;;;;22.00;11.48;;;;;;;23.01;56.55;99639.09;10494556;28;20040;-69
2022/07/30 23:14:34;;;;;;;22.42;13.05;;;;;;;23.12;57.31;99707.66;10495198;28;20466;-69
2022/07/30 23:19:35;;;;;;;18.55;12.27;;;;;;;22.99;58.07;99732.53;10495197;28;20074;-68